sensor_id;sensor_type;location;lat;lon;timestamp;temperature;humidity
4356;DHT22;2191;51.482;7.408;2022-09-09T00:00:13;19.40;99.90
4356;DHT22;2191;51.482;7.408;2022-09-09T00:02:49;19.50;99.90
4356;DHT22;2191;51.482;7.408;2022-09-09T00:05:28;19.30;99.90
4356;DHT22;2191;51.482;7.408;2022-09-09T00:08:00;19.40;99.90
4356;DHT22;2191;51.482;7.408;2022-09-09T00:10:37;19.60;99.90
4356;DHT22;2191;51.482;7.408;2022-09-09T00:13:20;19.70;99.90
4356;DHT22;2191;51.482;7.408;2022-09-09T00:15:57;19.50;99.90
4356;DHT22;2191;51.482;7.408;2022-09-09T00:18:28;19.30;99.90
4356;DHT22;2191;51.482;7.408;2022-09-09T00:21:05;19.40;99.90
4356;DHT22;2191;51.482;7.408;2022-09-09T00:23:38;19.40;99.90
4356;DHT22;2191;51.482;7.408;2022-09-09T00:26:10;19.00;99.90
4356;DHT22;2191;51.482;7.408;2022-09-09T00:28:41;18.90;99.90
4356;DHT22;2191;51.482;7.408;2022-09-09T00:31:17;18.80;99.90
4356;DHT22;2191;51.482;7.408;2022-09-09T00:33:47;18.90;99.90
4356;DHT22;2191;51.482;7.408;2022-09-09T00:36:18;18.90;99.90
4356;DHT22;2191;51.482;7.408;2022-09-09T00:38:52;18.90;99.90
4356;DHT22;2191;51.482;7.408;2022-09-09T00:41:26;19.00;99.90
4356;DHT22;2191;51.482;7.408;2022-09-09T00:44:02;19.10;99.90
4356;DHT22;2191;51.482;7.408;2022-09-09T00:46:50;19.20;99.90
4356;DHT22;2191;51.482;7.408;2022-09-09T00:49:49;19.40;99.90
4356;DHT22;2191;51.482;7.408;2022-09-09T00:52:39;19.30;99.90
4356;DHT22;2191;51.482;7.408;2022-09-09T00:55:16;19.40;99.90
4356;DHT22;2191;51.482;7.408;2022-09-09T00:57:50;19.60;99.90
4356;DHT22;2191;51.482;7.408;2022-09-09T01:00:22;19.80;99.90
4356;DHT22;2191;51.482;7.408;2022-09-09T01:03:10;19.60;99.90
4356;DHT22;2191;51.482;7.408;2022-09-09T01:05:46;19.80;99.90
4356;DHT22;2191;51.482;7.408;2022-09-09T01:11:20;20.00;99.90
4356;DHT22;2191;51.482;7.408;2022-09-09T01:13:53;20.10;99.90
4356;DHT22;2191;51.482;7.408;2022-09-09T01:16:30;20.10;99.90
4356;DHT22;2191;51.482;7.408;2022-09-09T01:18:59;20.00;99.90
4356;DHT22;2191;51.482;7.408;2022-09-09T01:21:39;20.00;99.90
4356;DHT22;2191;51.482;7.408;2022-09-09T01:24:20;19.90;99.90
4356;DHT22;2191;51.482;7.408;2022-09-09T01:26:52;19.80;99.90
4356;DHT22;2191;51.482;7.408;2022-09-09T01:29:24;19.80;99.90
4356;DHT22;2191;51.482;7.408;2022-09-09T01:31:55;19.40;99.90
4356;DHT22;2191;51.482;7.408;2022-09-09T01:34:24;19.20;99.90
4356;DHT22;2191;51.482;7.408;2022-09-09T01:36:59;19.30;99.90
4356;DHT22;2191;51.482;7.408;2022-09-09T01:39:28;19.30;99.90
4356;DHT22;2191;51.482;7.408;2022-09-09T01:42:01;19.60;99.90
4356;DHT22;2191;51.482;7.408;2022-09-09T01:44:38;19.20;99.90
4356;DHT22;2191;51.482;7.408;2022-09-09T01:47:06;19.30;99.90
4356;DHT22;2191;51.482;7.408;2022-09-09T01:49:34;19.30;99.90
4356;DHT22;2191;51.482;7.408;2022-09-09T01:52:03;19.30;99.90
4356;DHT22;2191;51.482;7.408;2022-09-09T01:54:32;19.30;99.90
4356;DHT22;2191;51.482;7.408;2022-09-09T01:57:09;19.30;99.90
4356;DHT22;2191;51.482;7.408;2022-09-09T01:59:51;19.20;99.90
4356;DHT22;2191;51.482;7.408;2022-09-09T02:02:26;19.20;99.90
4356;DHT22;2191;51.482;7.408;2022-09-09T02:04:57;19.40;99.90
4356;DHT22;2191;51.482;7.408;2022-09-09T02:07:35;19.30;99.90
4356;DHT22;2191;51.482;7.408;2022-09-09T02:10:10;19.40;99.90
4356;DHT22;2191;51.482;7.408;2022-09-09T02:12:44;19.40;99.90
4356;DHT22;2191;51.482;7.408;2022-09-09T02:15:18;19.50;99.90
4356;DHT22;2191;51.482;7.408;2022-09-09T02:18:07;19.30;99.90
4356;DHT22;2191;51.482;7.408;2022-09-09T02:20:37;19.50;99.90
4356;DHT22;2191;51.482;7.408;2022-09-09T02:23:07;19.60;99.90
4356;DHT22;2191;51.482;7.408;2022-09-09T02:25:40;19.80;99.90
4356;DHT22;2191;51.482;7.408;2022-09-09T02:28:12;19.50;99.90
4356;DHT22;2191;51.482;7.408;2022-09-09T02:30:41;19.30;99.90
4356;DHT22;2191;51.482;7.408;2022-09-09T02:33:10;19.20;99.90
4356;DHT22;2191;51.482;7.408;2022-09-09T02:35:42;19.10;99.90
4356;DHT22;2191;51.482;7.408;2022-09-09T02:38:13;19.40;99.90
4356;DHT22;2191;51.482;7.408;2022-09-09T02:40:42;19.50;99.90
4356;DHT22;2191;51.482;7.408;2022-09-09T02:43:13;19.40;99.90
4356;DHT22;2191;51.482;7.408;2022-09-09T02:45:49;19.20;99.90
4356;DHT22;2191;51.482;7.408;2022-09-09T02:48:28;18.70;99.90
4356;DHT22;2191;51.482;7.408;2022-09-09T02:51:07;18.60;99.90
4356;DHT22;2191;51.482;7.408;2022-09-09T02:53:49;18.70;99.90
4356;DHT22;2191;51.482;7.408;2022-09-09T02:56:22;19.20;99.90
4356;DHT22;2191;51.482;7.408;2022-09-09T02:59:04;19.20;99.90
4356;DHT22;2191;51.482;7.408;2022-09-09T03:01:37;19.10;99.90
4356;DHT22;2191;51.482;7.408;2022-09-09T03:04:06;19.20;99.90
4356;DHT22;2191;51.482;7.408;2022-09-09T03:06:34;19.10;99.90
4356;DHT22;2191;51.482;7.408;2022-09-09T03:09:07;18.90;99.90
4356;DHT22;2191;51.482;7.408;2022-09-09T03:11:42;19.00;99.90
4356;DHT22;2191;51.482;7.408;2022-09-09T03:14:18;18.80;99.90
4356;DHT22;2191;51.482;7.408;2022-09-09T03:16:47;18.90;99.90
4356;DHT22;2191;51.482;7.408;2022-09-09T03:19:16;19.20;99.90
4356;DHT22;2191;51.482;7.408;2022-09-09T03:21:45;19.30;99.90
4356;DHT22;2191;51.482;7.408;2022-09-09T03:24:12;19.10;99.90
4356;DHT22;2191;51.482;7.408;2022-09-09T03:26:41;19.10;99.90
4356;DHT22;2191;51.482;7.408;2022-09-09T03:29:11;18.80;99.90
4356;DHT22;2191;51.482;7.408;2022-09-09T03:31:43;18.90;99.90
4356;DHT22;2191;51.482;7.408;2022-09-09T03:34:18;18.80;99.90
4356;DHT22;2191;51.482;7.408;2022-09-09T03:36:48;18.90;99.90
4356;DHT22;2191;51.482;7.408;2022-09-09T03:39:16;19.00;99.90
4356;DHT22;2191;51.482;7.408;2022-09-09T03:41:44;19.20;99.90
4356;DHT22;2191;51.482;7.408;2022-09-09T03:44:14;19.20;99.90
4356;DHT22;2191;51.482;7.408;2022-09-09T03:46:45;19.10;99.90
4356;DHT22;2191;51.482;7.408;2022-09-09T03:49:15;19.00;99.90
4356;DHT22;2191;51.482;7.408;2022-09-09T03:51:43;19.10;99.90
4356;DHT22;2191;51.482;7.408;2022-09-09T03:54:11;19.20;99.90
4356;DHT22;2191;51.482;7.408;2022-09-09T03:56:41;19.10;99.90
4356;DHT22;2191;51.482;7.408;2022-09-09T03:59:09;19.10;99.90
4356;DHT22;2191;51.482;7.408;2022-09-09T04:01:37;19.20;99.90
4356;DHT22;2191;51.482;7.408;2022-09-09T04:04:07;19.20;99.90
4356;DHT22;2191;51.482;7.408;2022-09-09T04:06:35;19.10;99.90
4356;DHT22;2191;51.482;7.408;2022-09-09T04:09:03;19.20;99.90
4356;DHT22;2191;51.482;7.408;2022-09-09T04:11:31;19.00;99.90
4356;DHT22;2191;51.482;7.408;2022-09-09T04:13:59;19.00;99.90
4356;DHT22;2191;51.482;7.408;2022-09-09T04:16:29;18.80;99.90
4356;DHT22;2191;51.482;7.408;2022-09-09T04:18:57;18.90;99.90
4356;DHT22;2191;51.482;7.408;2022-09-09T04:21:28;18.90;99.90
4356;DHT22;2191;51.482;7.408;2022-09-09T04:23:58;18.40;99.90
4356;DHT22;2191;51.482;7.408;2022-09-09T04:26:26;18.30;99.90
4356;DHT22;2191;51.482;7.408;2022-09-09T04:28:54;18.60;99.90
4356;DHT22;2191;51.482;7.408;2022-09-09T04:31:22;18.90;99.90
4356;DHT22;2191;51.482;7.408;2022-09-09T04:33:51;18.90;99.90
4356;DHT22;2191;51.482;7.408;2022-09-09T04:36:21;18.80;99.90
4356;DHT22;2191;51.482;7.408;2022-09-09T04:38:53;19.00;99.90
4356;DHT22;2191;51.482;7.408;2022-09-09T04:41:21;19.00;99.90
4356;DHT22;2191;51.482;7.408;2022-09-09T04:43:49;19.10;99.90
4356;DHT22;2191;51.482;7.408;2022-09-09T04:46:16;19.20;99.90
4356;DHT22;2191;51.482;7.408;2022-09-09T04:48:46;19.00;99.90
4356;DHT22;2191;51.482;7.408;2022-09-09T04:51:21;19.20;99.90
4356;DHT22;2191;51.482;7.408;2022-09-09T04:53:48;19.20;99.90
4356;DHT22;2191;51.482;7.408;2022-09-09T04:56:19;19.30;99.90
4356;DHT22;2191;51.482;7.408;2022-09-09T04:58:50;19.40;99.90
4356;DHT22;2191;51.482;7.408;2022-09-09T05:01:19;19.30;99.90
4356;DHT22;2191;51.482;7.408;2022-09-09T05:03:48;19.20;99.90
4356;DHT22;2191;51.482;7.408;2022-09-09T05:06:18;19.10;99.90
4356;DHT22;2191;51.482;7.408;2022-09-09T05:08:46;19.30;99.90
4356;DHT22;2191;51.482;7.408;2022-09-09T05:11:17;19.10;99.90
4356;DHT22;2191;51.482;7.408;2022-09-09T05:13:52;19.30;99.90
4356;DHT22;2191;51.482;7.408;2022-09-09T05:16:20;19.10;99.90
4356;DHT22;2191;51.482;7.408;2022-09-09T05:18:54;18.90;99.90
4356;DHT22;2191;51.482;7.408;2022-09-09T05:21:23;18.90;99.90
4356;DHT22;2191;51.482;7.408;2022-09-09T05:23:52;19.00;99.90
4356;DHT22;2191;51.482;7.408;2022-09-09T05:26:21;19.00;99.90
4356;DHT22;2191;51.482;7.408;2022-09-09T05:28:54;18.70;99.90
4356;DHT22;2191;51.482;7.408;2022-09-09T05:31:22;19.00;99.90
4356;DHT22;2191;51.482;7.408;2022-09-09T05:33:56;19.10;99.90
4356;DHT22;2191;51.482;7.408;2022-09-09T05:36:26;19.30;99.90
4356;DHT22;2191;51.482;7.408;2022-09-09T05:38:54;19.40;99.90
4356;DHT22;2191;51.482;7.408;2022-09-09T05:41:22;19.40;99.90
4356;DHT22;2191;51.482;7.408;2022-09-09T05:43:50;19.60;99.90
4356;DHT22;2191;51.482;7.408;2022-09-09T05:46:23;19.80;99.90
4356;DHT22;2191;51.482;7.408;2022-09-09T05:48:54;19.50;99.90
4356;DHT22;2191;51.482;7.408;2022-09-09T05:51:23;19.50;99.90
4356;DHT22;2191;51.482;7.408;2022-09-09T05:53:53;19.50;99.90
4356;DHT22;2191;51.482;7.408;2022-09-09T05:56:26;19.60;99.90
4356;DHT22;2191;51.482;7.408;2022-09-09T05:58:55;19.60;99.90
4356;DHT22;2191;51.482;7.408;2022-09-09T06:01:25;19.60;99.90
4356;DHT22;2191;51.482;7.408;2022-09-09T06:03:54;19.70;99.90
4356;DHT22;2191;51.482;7.408;2022-09-09T06:06:24;19.50;99.90
4356;DHT22;2191;51.482;7.408;2022-09-09T06:08:54;19.60;99.90
4356;DHT22;2191;51.482;7.408;2022-09-09T06:11:24;19.80;99.90
4356;DHT22;2191;51.482;7.408;2022-09-09T06:13:52;19.90;99.90
4356;DHT22;2191;51.482;7.408;2022-09-09T06:16:22;19.80;99.90
4356;DHT22;2191;51.482;7.408;2022-09-09T06:18:56;19.70;99.90
4356;DHT22;2191;51.482;7.408;2022-09-09T06:21:28;19.30;99.90
4356;DHT22;2191;51.482;7.408;2022-09-09T06:23:57;19.40;99.90
4356;DHT22;2191;51.482;7.408;2022-09-09T06:26:29;19.40;99.90
4356;DHT22;2191;51.482;7.408;2022-09-09T06:28:57;19.10;99.90
4356;DHT22;2191;51.482;7.408;2022-09-09T06:31:27;19.20;99.90
4356;DHT22;2191;51.482;7.408;2022-09-09T06:33:58;18.70;99.90
4356;DHT22;2191;51.482;7.408;2022-09-09T06:36:30;18.70;99.90
4356;DHT22;2191;51.482;7.408;2022-09-09T06:38:59;18.80;99.90
4356;DHT22;2191;51.482;7.408;2022-09-09T06:41:28;19.00;99.90
4356;DHT22;2191;51.482;7.408;2022-09-09T06:43:57;19.20;99.90
4356;DHT22;2191;51.482;7.408;2022-09-09T06:46:26;19.30;99.90
4356;DHT22;2191;51.482;7.408;2022-09-09T06:49:09;19.40;99.90
4356;DHT22;2191;51.482;7.408;2022-09-09T06:51:38;19.40;99.90
4356;DHT22;2191;51.482;7.408;2022-09-09T06:54:09;19.30;99.90
4356;DHT22;2191;51.482;7.408;2022-09-09T06:56:38;19.40;99.90
4356;DHT22;2191;51.482;7.408;2022-09-09T06:59:15;19.50;99.90
4356;DHT22;2191;51.482;7.408;2022-09-09T07:01:43;19.40;99.90
4356;DHT22;2191;51.482;7.408;2022-09-09T07:04:13;19.10;99.90
4356;DHT22;2191;51.482;7.408;2022-09-09T07:06:42;19.10;99.90
4356;DHT22;2191;51.482;7.408;2022-09-09T07:09:14;19.10;99.90
4356;DHT22;2191;51.482;7.408;2022-09-09T07:11:44;18.90;99.90
4356;DHT22;2191;51.482;7.408;2022-09-09T07:14:15;18.90;99.90
4356;DHT22;2191;51.482;7.408;2022-09-09T07:16:44;18.90;99.90
4356;DHT22;2191;51.482;7.408;2022-09-09T07:19:14;18.80;99.90
4356;DHT22;2191;51.482;7.408;2022-09-09T07:21:43;18.80;99.90
4356;DHT22;2191;51.482;7.408;2022-09-09T07:24:11;19.00;99.90
4356;DHT22;2191;51.482;7.408;2022-09-09T07:26:42;19.10;99.90
4356;DHT22;2191;51.482;7.408;2022-09-09T07:29:12;19.00;99.90
4356;DHT22;2191;51.482;7.408;2022-09-09T07:31:46;19.20;99.90
4356;DHT22;2191;51.482;7.408;2022-09-09T07:34:16;19.30;99.90
4356;DHT22;2191;51.482;7.408;2022-09-09T07:36:45;19.20;99.90
4356;DHT22;2191;51.482;7.408;2022-09-09T07:39:13;19.40;99.90
4356;DHT22;2191;51.482;7.408;2022-09-09T07:41:45;19.10;99.90
4356;DHT22;2191;51.482;7.408;2022-09-09T07:44:18;19.30;99.90
4356;DHT22;2191;51.482;7.408;2022-09-09T07:46:47;19.30;99.90
4356;DHT22;2191;51.482;7.408;2022-09-09T07:49:19;19.00;99.90
4356;DHT22;2191;51.482;7.408;2022-09-09T07:51:59;19.10;99.90
4356;DHT22;2191;51.482;7.408;2022-09-09T07:54:27;19.30;99.90
4356;DHT22;2191;51.482;7.408;2022-09-09T07:56:58;19.30;99.90
4356;DHT22;2191;51.482;7.408;2022-09-09T07:59:29;19.30;99.90
4356;DHT22;2191;51.482;7.408;2022-09-09T08:01:57;19.50;99.90
4356;DHT22;2191;51.482;7.408;2022-09-09T08:04:26;19.40;99.90
4356;DHT22;2191;51.482;7.408;2022-09-09T08:06:56;19.60;99.90
4356;DHT22;2191;51.482;7.408;2022-09-09T08:09:25;19.20;99.90
4356;DHT22;2191;51.482;7.408;2022-09-09T08:11:56;19.40;99.90
4356;DHT22;2191;51.482;7.408;2022-09-09T08:14:30;19.50;99.90
4356;DHT22;2191;51.482;7.408;2022-09-09T08:16:58;19.20;99.90
4356;DHT22;2191;51.482;7.408;2022-09-09T08:19:27;19.30;99.90
4356;DHT22;2191;51.482;7.408;2022-09-09T08:22:03;19.60;99.90
4356;DHT22;2191;51.482;7.408;2022-09-09T08:24:31;19.80;99.90
4356;DHT22;2191;51.482;7.408;2022-09-09T08:26:58;19.80;99.90
4356;DHT22;2191;51.482;7.408;2022-09-09T08:29:29;20.00;99.90
4356;DHT22;2191;51.482;7.408;2022-09-09T08:32:00;20.00;99.90
4356;DHT22;2191;51.482;7.408;2022-09-09T08:34:29;19.70;99.90
4356;DHT22;2191;51.482;7.408;2022-09-09T08:37:03;19.50;99.90
4356;DHT22;2191;51.482;7.408;2022-09-09T08:39:34;19.30;99.90
4356;DHT22;2191;51.482;7.408;2022-09-09T08:42:18;19.30;99.90
4356;DHT22;2191;51.482;7.408;2022-09-09T08:44:58;19.50;99.90
4356;DHT22;2191;51.482;7.408;2022-09-09T08:47:43;19.60;99.90
4356;DHT22;2191;51.482;7.408;2022-09-09T08:50:21;19.40;99.90
4356;DHT22;2191;51.482;7.408;2022-09-09T08:52:54;19.40;99.90
4356;DHT22;2191;51.482;7.408;2022-09-09T08:55:35;19.60;99.90
4356;DHT22;2191;51.482;7.408;2022-09-09T08:58:12;19.90;99.90
4356;DHT22;2191;51.482;7.408;2022-09-09T09:00:54;20.10;99.90
4356;DHT22;2191;51.482;7.408;2022-09-09T09:03:34;20.00;99.90
4356;DHT22;2191;51.482;7.408;2022-09-09T09:06:13;20.00;99.90
4356;DHT22;2191;51.482;7.408;2022-09-09T09:09:00;20.20;99.90
4356;DHT22;2191;51.482;7.408;2022-09-09T09:11:39;20.10;99.90
4356;DHT22;2191;51.482;7.408;2022-09-09T09:14:11;20.30;99.90
4356;DHT22;2191;51.482;7.408;2022-09-09T09:16:48;20.40;99.90
4356;DHT22;2191;51.482;7.408;2022-09-09T09:19:18;20.40;99.90
4356;DHT22;2191;51.482;7.408;2022-09-09T09:21:56;20.30;99.90
4356;DHT22;2191;51.482;7.408;2022-09-09T09:24:33;20.60;99.90
4356;DHT22;2191;51.482;7.408;2022-09-09T09:27:12;20.90;99.90
4356;DHT22;2191;51.482;7.408;2022-09-09T09:29:44;20.60;99.90
4356;DHT22;2191;51.482;7.408;2022-09-09T09:32:36;20.80;99.90
4356;DHT22;2191;51.482;7.408;2022-09-09T09:35:12;20.80;99.90
4356;DHT22;2191;51.482;7.408;2022-09-09T09:37:41;21.00;99.90
4356;DHT22;2191;51.482;7.408;2022-09-09T09:40:32;21.20;99.90
4356;DHT22;2191;51.482;7.408;2022-09-09T09:43:01;21.10;99.90
4356;DHT22;2191;51.482;7.408;2022-09-09T09:45:34;21.10;99.90
4356;DHT22;2191;51.482;7.408;2022-09-09T09:48:11;20.80;99.90
4356;DHT22;2191;51.482;7.408;2022-09-09T09:50:47;20.90;99.90
4356;DHT22;2191;51.482;7.408;2022-09-09T09:53:24;20.80;99.90
4356;DHT22;2191;51.482;7.408;2022-09-09T09:55:55;20.80;99.90
4356;DHT22;2191;51.482;7.408;2022-09-09T09:58:25;20.90;99.90
4356;DHT22;2191;51.482;7.408;2022-09-09T10:00:54;20.50;99.90
4356;DHT22;2191;51.482;7.408;2022-09-09T10:03:24;20.80;99.90
4356;DHT22;2191;51.482;7.408;2022-09-09T10:05:53;20.90;99.90
4356;DHT22;2191;51.482;7.408;2022-09-09T10:08:23;21.00;99.90
4356;DHT22;2191;51.482;7.408;2022-09-09T10:13:50;20.70;99.90
4356;DHT22;2191;51.482;7.408;2022-09-09T10:16:37;20.70;99.90
4356;DHT22;2191;51.482;7.408;2022-09-09T10:19:13;20.40;99.90
4356;DHT22;2191;51.482;7.408;2022-09-09T10:25:04;20.70;99.90
4356;DHT22;2191;51.482;7.408;2022-09-09T10:27:45;20.90;99.90
4356;DHT22;2191;51.482;7.408;2022-09-09T10:30:29;21.40;99.90
4356;DHT22;2191;51.482;7.408;2022-09-09T10:33:09;21.10;99.90
4356;DHT22;2191;51.482;7.408;2022-09-09T10:35:44;21.10;99.90
4356;DHT22;2191;51.482;7.408;2022-09-09T10:38:16;21.20;99.90
4356;DHT22;2191;51.482;7.408;2022-09-09T10:41:10;21.10;99.90
4356;DHT22;2191;51.482;7.408;2022-09-09T10:44:02;21.30;99.90
4356;DHT22;2191;51.482;7.408;2022-09-09T10:46:39;21.00;99.90
4356;DHT22;2191;51.482;7.408;2022-09-09T10:49:23;21.30;99.90
4356;DHT22;2191;51.482;7.408;2022-09-09T10:52:09;21.50;99.90
4356;DHT22;2191;51.482;7.408;2022-09-09T10:54:48;21.70;99.90
4356;DHT22;2191;51.482;7.408;2022-09-09T10:57:29;21.70;99.90
4356;DHT22;2191;51.482;7.408;2022-09-09T11:00:01;21.80;99.90
4356;DHT22;2191;51.482;7.408;2022-09-09T11:02:32;22.10;99.90
4356;DHT22;2191;51.482;7.408;2022-09-09T11:05:03;22.10;99.90
4356;DHT22;2191;51.482;7.408;2022-09-09T11:07:36;22.10;99.90
4356;DHT22;2191;51.482;7.408;2022-09-09T11:10:16;22.10;99.90
4356;DHT22;2191;51.482;7.408;2022-09-09T11:12:50;22.50;99.90
4356;DHT22;2191;51.482;7.408;2022-09-09T11:15:26;22.10;99.90
4356;DHT22;2191;51.482;7.408;2022-09-09T11:18:04;22.40;99.90
4356;DHT22;2191;51.482;7.408;2022-09-09T11:20:32;22.60;99.90
4356;DHT22;2191;51.482;7.408;2022-09-09T11:23:04;22.70;99.90
4356;DHT22;2191;51.482;7.408;2022-09-09T11:25:38;22.50;99.90
4356;DHT22;2191;51.482;7.408;2022-09-09T11:28:24;22.70;99.90
4356;DHT22;2191;51.482;7.408;2022-09-09T11:31:08;23.20;99.90
4356;DHT22;2191;51.482;7.408;2022-09-09T11:33:58;23.30;99.90
4356;DHT22;2191;51.482;7.408;2022-09-09T11:36:50;22.90;99.90
4356;DHT22;2191;51.482;7.408;2022-09-09T11:42:31;22.60;99.90
4356;DHT22;2191;51.482;7.408;2022-09-09T11:45:10;22.70;99.90
4356;DHT22;2191;51.482;7.408;2022-09-09T11:47:51;22.50;99.90
4356;DHT22;2191;51.482;7.408;2022-09-09T11:50:37;22.60;99.90
4356;DHT22;2191;51.482;7.408;2022-09-09T11:53:20;22.50;99.90
4356;DHT22;2191;51.482;7.408;2022-09-09T11:56:09;22.40;99.90
4356;DHT22;2191;51.482;7.408;2022-09-09T11:58:44;22.50;99.90
4356;DHT22;2191;51.482;7.408;2022-09-09T12:01:37;22.70;99.90
4356;DHT22;2191;51.482;7.408;2022-09-09T12:04:28;22.60;99.90
4356;DHT22;2191;51.482;7.408;2022-09-09T12:07:20;22.60;99.90
4356;DHT22;2191;51.482;7.408;2022-09-09T12:09:57;22.50;99.90
4356;DHT22;2191;51.482;7.408;2022-09-09T12:12:36;22.50;99.90
4356;DHT22;2191;51.482;7.408;2022-09-09T12:15:26;22.20;99.90
4356;DHT22;2191;51.482;7.408;2022-09-09T12:18:15;21.80;99.90
4356;DHT22;2191;51.482;7.408;2022-09-09T12:20:57;21.80;99.90
4356;DHT22;2191;51.482;7.408;2022-09-09T12:23:36;21.70;99.90
4356;DHT22;2191;51.482;7.408;2022-09-09T12:26:20;21.90;99.90
4356;DHT22;2191;51.482;7.408;2022-09-09T12:29:05;21.60;99.90
4356;DHT22;2191;51.482;7.408;2022-09-09T12:31:41;21.50;99.90
4356;DHT22;2191;51.482;7.408;2022-09-09T12:34:15;21.30;99.90
4356;DHT22;2191;51.482;7.408;2022-09-09T12:36:48;20.90;99.90
4356;DHT22;2191;51.482;7.408;2022-09-09T12:39:29;20.70;99.90
4356;DHT22;2191;51.482;7.408;2022-09-09T12:42:16;20.20;99.90
4356;DHT22;2191;51.482;7.408;2022-09-09T12:45:01;20.00;99.90
4356;DHT22;2191;51.482;7.408;2022-09-09T12:47:41;20.20;99.90
4356;DHT22;2191;51.482;7.408;2022-09-09T12:50:19;20.40;99.90
4356;DHT22;2191;51.482;7.408;2022-09-09T12:52:49;20.80;99.90
4356;DHT22;2191;51.482;7.408;2022-09-09T12:55:20;21.10;99.90
4356;DHT22;2191;51.482;7.408;2022-09-09T12:57:49;21.20;99.90
4356;DHT22;2191;51.482;7.408;2022-09-09T13:00:20;21.40;99.90
4356;DHT22;2191;51.482;7.408;2022-09-09T13:02:56;21.80;99.90
4356;DHT22;2191;51.482;7.408;2022-09-09T13:05:28;22.10;99.90
4356;DHT22;2191;51.482;7.408;2022-09-09T13:08:01;22.00;99.90
4356;DHT22;2191;51.482;7.408;2022-09-09T13:10:32;22.00;99.90
4356;DHT22;2191;51.482;7.408;2022-09-09T13:13:26;21.90;99.90
4356;DHT22;2191;51.482;7.408;2022-09-09T13:16:04;21.80;99.90
4356;DHT22;2191;51.482;7.408;2022-09-09T13:18:35;21.50;99.90
4356;DHT22;2191;51.482;7.408;2022-09-09T13:21:06;21.50;99.90
4356;DHT22;2191;51.482;7.408;2022-09-09T13:23:35;21.20;99.90
4356;DHT22;2191;51.482;7.408;2022-09-09T13:26:20;20.80;99.90
4356;DHT22;2191;51.482;7.408;2022-09-09T13:28:51;20.70;99.90
4356;DHT22;2191;51.482;7.408;2022-09-09T13:31:24;21.00;99.90
4356;DHT22;2191;51.482;7.408;2022-09-09T13:33:55;21.50;99.90
4356;DHT22;2191;51.482;7.408;2022-09-09T13:36:31;21.50;99.90
4356;DHT22;2191;51.482;7.408;2022-09-09T13:39:12;21.50;99.90
4356;DHT22;2191;51.482;7.408;2022-09-09T13:41:43;21.90;99.90
4356;DHT22;2191;51.482;7.408;2022-09-09T13:44:18;22.30;99.90
4356;DHT22;2191;51.482;7.408;2022-09-09T13:47:00;22.20;99.90
4356;DHT22;2191;51.482;7.408;2022-09-09T13:49:44;22.20;99.90
4356;DHT22;2191;51.482;7.408;2022-09-09T13:52:14;21.60;99.90
4356;DHT22;2191;51.482;7.408;2022-09-09T13:54:47;21.80;99.90
4356;DHT22;2191;51.482;7.408;2022-09-09T13:57:16;21.90;99.90
4356;DHT22;2191;51.482;7.408;2022-09-09T13:59:47;21.70;99.90
4356;DHT22;2191;51.482;7.408;2022-09-09T14:02:35;21.20;99.90
4356;DHT22;2191;51.482;7.408;2022-09-09T14:05:08;21.10;99.90
4356;DHT22;2191;51.482;7.408;2022-09-09T14:07:39;20.50;99.90
4356;DHT22;2191;51.482;7.408;2022-09-09T14:10:10;20.30;99.90
4356;DHT22;2191;51.482;7.408;2022-09-09T14:12:38;19.90;99.90
4356;DHT22;2191;51.482;7.408;2022-09-09T14:15:09;19.90;99.90
4356;DHT22;2191;51.482;7.408;2022-09-09T14:17:37;20.00;99.90
4356;DHT22;2191;51.482;7.408;2022-09-09T14:20:06;19.90;99.90
4356;DHT22;2191;51.482;7.408;2022-09-09T14:22:39;19.90;99.90
4356;DHT22;2191;51.482;7.408;2022-09-09T14:25:08;20.20;99.90
4356;DHT22;2191;51.482;7.408;2022-09-09T14:27:38;20.40;99.90
4356;DHT22;2191;51.482;7.408;2022-09-09T14:30:07;20.60;99.90
4356;DHT22;2191;51.482;7.408;2022-09-09T14:32:38;20.90;99.90
4356;DHT22;2191;51.482;7.408;2022-09-09T14:35:07;21.30;99.90
4356;DHT22;2191;51.482;7.408;2022-09-09T14:37:35;21.70;99.90
4356;DHT22;2191;51.482;7.408;2022-09-09T14:40:05;21.70;99.90
4356;DHT22;2191;51.482;7.408;2022-09-09T14:42:36;22.20;99.90
4356;DHT22;2191;51.482;7.408;2022-09-09T14:45:07;22.40;99.90
4356;DHT22;2191;51.482;7.408;2022-09-09T14:47:36;22.30;99.90
4356;DHT22;2191;51.482;7.408;2022-09-09T14:50:05;22.10;99.90
4356;DHT22;2191;51.482;7.408;2022-09-09T14:52:34;21.80;99.90
4356;DHT22;2191;51.482;7.408;2022-09-09T14:55:05;21.80;99.90
4356;DHT22;2191;51.482;7.408;2022-09-09T14:57:38;21.90;99.90
4356;DHT22;2191;51.482;7.408;2022-09-09T15:00:08;21.80;99.90
4356;DHT22;2191;51.482;7.408;2022-09-09T15:02:36;22.10;99.90
4356;DHT22;2191;51.482;7.408;2022-09-09T15:05:10;21.60;99.90
4356;DHT22;2191;51.482;7.408;2022-09-09T15:07:38;21.50;99.90
4356;DHT22;2191;51.482;7.408;2022-09-09T15:10:08;21.40;99.90
4356;DHT22;2191;51.482;7.408;2022-09-09T15:12:37;21.20;99.90
4356;DHT22;2191;51.482;7.408;2022-09-09T15:15:05;21.00;99.90
4356;DHT22;2191;51.482;7.408;2022-09-09T15:17:34;21.10;99.90
4356;DHT22;2191;51.482;7.408;2022-09-09T15:20:03;21.40;99.90
4356;DHT22;2191;51.482;7.408;2022-09-09T15:22:32;21.60;99.90
4356;DHT22;2191;51.482;7.408;2022-09-09T15:25:00;21.50;99.90
4356;DHT22;2191;51.482;7.408;2022-09-09T15:27:29;21.50;99.90
4356;DHT22;2191;51.482;7.408;2022-09-09T15:29:57;21.70;99.90
4356;DHT22;2191;51.482;7.408;2022-09-09T15:32:27;21.30;99.90
4356;DHT22;2191;51.482;7.408;2022-09-09T15:34:55;21.20;99.90
4356;DHT22;2191;51.482;7.408;2022-09-09T15:37:23;20.80;99.90
4356;DHT22;2191;51.482;7.408;2022-09-09T15:39:53;20.60;99.90
4356;DHT22;2191;51.482;7.408;2022-09-09T15:42:21;20.30;99.90
4356;DHT22;2191;51.482;7.408;2022-09-09T15:44:50;19.80;99.90
4356;DHT22;2191;51.482;7.408;2022-09-09T15:47:28;19.10;99.90
4356;DHT22;2191;51.482;7.408;2022-09-09T15:49:58;18.40;99.90
4356;DHT22;2191;51.482;7.408;2022-09-09T15:52:25;18.70;99.90
4356;DHT22;2191;51.482;7.408;2022-09-09T15:54:53;18.90;99.90
4356;DHT22;2191;51.482;7.408;2022-09-09T15:57:21;18.90;99.90
4356;DHT22;2191;51.482;7.408;2022-09-09T15:59:58;18.60;99.90
4356;DHT22;2191;51.482;7.408;2022-09-09T16:02:26;18.80;99.90
4356;DHT22;2191;51.482;7.408;2022-09-09T16:04:54;19.00;99.90
4356;DHT22;2191;51.482;7.408;2022-09-09T16:07:26;19.30;99.90
4356;DHT22;2191;51.482;7.408;2022-09-09T16:09:53;19.70;99.90
4356;DHT22;2191;51.482;7.408;2022-09-09T16:12:21;19.80;99.90
4356;DHT22;2191;51.482;7.408;2022-09-09T16:14:49;19.80;99.90
4356;DHT22;2191;51.482;7.408;2022-09-09T16:17:18;20.20;99.90
4356;DHT22;2191;51.482;7.408;2022-09-09T16:19:47;20.40;99.90
4356;DHT22;2191;51.482;7.408;2022-09-09T16:22:14;20.60;99.90
4356;DHT22;2191;51.482;7.408;2022-09-09T16:24:44;20.70;99.90
4356;DHT22;2191;51.482;7.408;2022-09-09T16:27:12;20.90;99.90
4356;DHT22;2191;51.482;7.408;2022-09-09T16:29:40;20.90;99.90
4356;DHT22;2191;51.482;7.408;2022-09-09T16:32:08;21.00;99.90
4356;DHT22;2191;51.482;7.408;2022-09-09T16:34:38;21.00;99.90
4356;DHT22;2191;51.482;7.408;2022-09-09T16:37:06;21.10;99.90
4356;DHT22;2191;51.482;7.408;2022-09-09T16:39:34;21.10;99.90
4356;DHT22;2191;51.482;7.408;2022-09-09T16:42:05;20.90;99.90
4356;DHT22;2191;51.482;7.408;2022-09-09T16:44:32;20.90;99.90
4356;DHT22;2191;51.482;7.408;2022-09-09T16:47:00;20.90;99.90
4356;DHT22;2191;51.482;7.408;2022-09-09T16:49:28;20.90;99.90
4356;DHT22;2191;51.482;7.408;2022-09-09T16:52:02;20.80;99.90